createdAt,value
2022-08-22T00:00:56.968Z,100133.44
2022-08-22T00:02:46.391Z,100109.16
2022-08-22T00:02:48.774Z,100118.34
2022-08-22T00:03:03.386Z,100113.94
2022-08-22T00:04:15.214Z,100127.53
2022-08-22T00:07:12.902Z,100135.69
2022-08-22T00:10:25.880Z,100137.59
2022-08-22T00:13:13.439Z,100138.66
2022-08-22T00:16:03.119Z,100145.06
2022-08-22T00:18:44.629Z,100147.25
2022-08-22T00:21:43.355Z,100148.66
2022-08-22T00:24:24.798Z,100142.69
2022-08-22T00:27:07.645Z,100145.13
2022-08-22T00:29:49.272Z,100143.81
2022-08-22T00:32:40.483Z,100144.25
2022-08-22T00:35:19.844Z,100143.75
2022-08-22T00:38:07.284Z,100148.09
2022-08-22T00:40:48.677Z,100149.13
2022-08-22T00:43:49.775Z,100153.59
2022-08-22T00:46:23.326Z,100144.25
2022-08-22T00:49:15.725Z,100152.09
2022-08-22T00:52:02.646Z,100148.72
2022-08-22T00:54:56.273Z,100146.34
2022-08-22T00:57:46.015Z,100150.91
2022-08-22T01:00:34.357Z,100145.44
2022-08-22T01:03:29.255Z,100146.75
2022-08-22T01:06:12.497Z,100150.84
2022-08-22T01:09:09.974Z,100157.06
2022-08-22T01:11:58.865Z,100153.63
2022-08-22T01:14:37.405Z,100161.97
2022-08-22T01:17:29.866Z,100158.22
2022-08-22T01:20:10.721Z,100153.84
2022-08-22T01:23:08.412Z,100154.03
2022-08-22T01:26:13.523Z,100160.25
2022-08-22T01:28:56.341Z,100164.03
2022-08-22T01:31:36.416Z,100161.56
2022-08-22T01:34:30.320Z,100168.63
2022-08-22T01:37:20.010Z,100165.56
2022-08-22T01:40:20.827Z,100166.66
2022-08-22T01:43:59.310Z,100164.44
2022-08-22T01:46:28.727Z,100171.75
2022-08-22T01:49:25.589Z,100167.66
2022-08-22T01:52:19.757Z,100166.34
2022-08-22T01:54:56.300Z,100165.91
2022-08-22T01:57:25.212Z,100161.03
2022-08-22T01:59:55.779Z,100164.13
2022-08-22T02:02:41.927Z,100158.16
2022-08-22T02:05:32.032Z,100159.75
2022-08-22T02:08:03.119Z,100162.13
2022-08-22T02:10:49.066Z,100166.38
2022-08-22T02:13:41.257Z,100154.44
2022-08-22T02:16:20.167Z,100167.34
2022-08-22T02:18:57.852Z,100164.34
2022-08-22T02:21:51.718Z,100161.94
2022-08-22T02:24:22.596Z,100157.63
2022-08-22T02:27:10.382Z,100160.56
2022-08-22T02:29:53.601Z,100156.81
2022-08-22T02:32:46.782Z,100162.28
2022-08-22T02:41:52.858Z,100159.25
2022-08-22T02:45:08.658Z,100165.47
2022-08-22T02:48:20.642Z,100171.44
2022-08-22T02:51:05.895Z,100173.22
2022-08-22T02:57:11.379Z,100179.41
2022-08-22T03:00:30.749Z,100183.16
2022-08-22T03:03:07.272Z,100179.75
2022-08-22T03:05:38.488Z,100180.44
2022-08-22T03:08:09.302Z,100185.53
2022-08-22T03:10:46.144Z,100188.22
2022-08-22T03:13:36.523Z,100188.13
2022-08-22T03:16:13.513Z,100188.03
2022-08-22T03:19:03.575Z,100182.53
2022-08-22T03:21:41.791Z,100185.00
2022-08-22T03:24:26.928Z,100184.03
2022-08-22T03:27:32.691Z,100183.88
2022-08-22T03:30:17.285Z,100184.84
2022-08-22T03:32:50.861Z,100194.84
2022-08-22T03:35:39.238Z,100193.44
2022-08-22T03:51:04.498Z,100191.13
2022-08-22T03:53:51.544Z,100194.66
2022-08-22T03:59:44.002Z,100188.13
2022-08-22T04:02:43.620Z,100200.06
2022-08-22T04:06:11.501Z,100202.13
2022-08-22T04:09:10.478Z,100211.34
2022-08-22T04:11:57.053Z,100221.78
2022-08-22T04:15:02.485Z,100221.13
2022-08-22T04:18:09.200Z,100229.53
2022-08-22T04:20:49.609Z,100221.94
2022-08-22T04:23:44.969Z,100224.44
2022-08-22T04:26:29.922Z,100228.22
2022-08-22T04:29:14.808Z,100229.25
2022-08-22T04:31:51.452Z,100229.84
2022-08-22T04:34:39.560Z,100229.75
2022-08-22T04:40:29.595Z,100228.94
2022-08-22T04:43:09.542Z,100222.00
2022-08-22T04:45:57.510Z,100238.75
2022-08-22T04:48:28.454Z,100233.16
2022-08-22T04:53:55.988Z,100247.56
2022-08-22T04:56:57.414Z,100243.31
2022-08-22T04:59:33.496Z,100242.91
2022-08-22T05:02:08.435Z,100240.66
2022-08-22T05:07:58.956Z,100247.75
2022-08-22T05:10:48.399Z,100233.84
2022-08-22T05:13:29.379Z,100242.31
2022-08-22T05:16:06.497Z,100236.16
2022-08-22T05:18:43.631Z,100240.53
2022-08-22T05:21:17.122Z,100245.28
2022-08-22T05:24:31.037Z,100248.09
2022-08-22T05:27:09.936Z,100250.16
2022-08-22T05:29:44.041Z,100245.59
2022-08-22T05:32:26.496Z,100253.50
2022-08-22T05:35:02.497Z,100251.31
2022-08-22T05:37:49.709Z,100256.28
2022-08-22T05:40:25.281Z,100253.94
2022-08-22T05:42:57.032Z,100255.66
2022-08-22T05:48:45.219Z,100244.44
2022-08-22T05:51:30.421Z,100252.81
2022-08-22T05:54:12.462Z,100255.00
2022-08-22T05:56:46.933Z,100247.50
2022-08-22T05:59:23.591Z,100248.97
2022-08-22T06:02:18.865Z,100252.03
2022-08-22T06:04:47.371Z,100250.50
2022-08-22T06:07:28.564Z,100253.28
2022-08-22T06:10:26.213Z,100248.66
2022-08-22T06:16:16.519Z,100252.59
2022-08-22T06:18:54.941Z,100252.63
2022-08-22T06:21:37.660Z,100255.94
2022-08-22T06:24:13.820Z,100255.94
2022-08-22T06:26:48.604Z,100258.16
2022-08-22T06:29:38.436Z,100254.91
2022-08-22T06:32:59.388Z,100263.91
2022-08-22T06:35:20.165Z,100260.09
2022-08-22T06:37:51.016Z,100255.47
2022-08-22T06:40:19.427Z,100263.34
2022-08-22T06:42:51.285Z,100264.44
2022-08-22T06:45:24.169Z,100263.59
2022-08-22T06:48:49.483Z,100273.63
2022-08-22T06:51:22.281Z,100273.34
2022-08-22T06:53:57.081Z,100269.00
2022-08-22T06:57:16.124Z,100273.88
2022-08-22T06:59:49.423Z,100273.88
2022-08-22T07:02:55.223Z,100283.09
2022-08-22T07:05:28.614Z,100263.50
2022-08-22T07:07:57.812Z,100267.91
2022-08-22T07:10:29.055Z,100268.47
2022-08-22T07:12:57.856Z,100271.22
2022-08-22T07:15:40.100Z,100269.03
2022-08-22T07:18:19.686Z,100271.22
2022-08-22T07:21:05.324Z,100271.75
2022-08-22T07:23:42.636Z,100271.75
2022-08-22T07:26:23.965Z,100280.19
2022-08-22T07:29:10.706Z,100269.31
2022-08-22T07:35:23.097Z,100281.38
2022-08-22T07:38:03.951Z,100277.75
2022-08-22T07:41:24.536Z,100282.19
2022-08-22T07:44:46.585Z,100278.06
2022-08-22T07:47:21.859Z,100280.25
2022-08-22T07:50:00.283Z,100295.59
2022-08-22T07:52:39.119Z,100297.66
2022-08-22T07:55:20.328Z,100297.47
2022-08-22T07:57:55.627Z,100295.50
2022-08-22T08:00:24.983Z,100295.53
2022-08-22T08:03:06.972Z,100293.88
2022-08-22T08:05:37.596Z,100291.06
2022-08-22T08:08:18.257Z,100291.75
2022-08-22T08:10:51.446Z,100288.94
2022-08-22T08:13:34.845Z,100282.72
2022-08-22T08:16:11.109Z,100285.72
2022-08-22T08:19:04.735Z,100290.16
2022-08-22T08:21:39.600Z,100287.47
2022-08-22T08:24:13.701Z,100290.47
2022-08-22T08:27:14.113Z,100292.75
2022-08-22T08:30:06.748Z,100288.88
2022-08-22T08:32:38.594Z,100292.56
2022-08-22T08:35:15.552Z,100285.84
2022-08-22T08:37:57.082Z,100286.75
2022-08-22T08:40:56.831Z,100281.63
2022-08-22T08:43:38.579Z,100282.25
2022-08-22T08:46:19.150Z,100286.84
2022-08-22T08:49:15.010Z,100290.44
2022-08-22T08:51:59.161Z,100283.06
2022-08-22T08:54:47.248Z,100287.41
2022-08-22T08:57:24.960Z,100285.06
2022-08-22T09:00:32.306Z,100289.41
2022-08-22T09:03:24.056Z,100277.28
2022-08-22T09:06:52.863Z,100281.88
2022-08-22T09:10:02.463Z,100285.00
2022-08-22T09:13:11.794Z,100285.50
2022-08-22T09:16:04.851Z,100284.81
2022-08-22T09:19:29.249Z,100292.50
2022-08-22T09:22:00.177Z,100287.31
2022-08-22T09:24:34.296Z,100281.81
2022-08-22T09:27:12.479Z,100285.88
2022-08-22T09:29:59.821Z,100285.66
2022-08-22T09:33:02.702Z,100283.19
2022-08-22T09:35:52.152Z,100280.50
2022-08-22T09:38:50.688Z,100286.00
2022-08-22T09:41:35.311Z,100278.00
2022-08-22T09:44:22.557Z,100282.97
2022-08-22T09:47:06.808Z,100282.44
2022-08-22T09:50:04.571Z,100280.75
2022-08-22T09:53:06.196Z,100271.72
2022-08-22T09:55:45.402Z,100271.72
2022-08-22T09:58:48.241Z,100264.41
2022-08-22T10:01:32.956Z,100263.72
2022-08-22T10:04:07.784Z,100269.19
2022-08-22T10:07:12.196Z,100266.03
2022-08-22T10:10:21.654Z,100267.16
2022-08-22T10:13:00.459Z,100275.84
2022-08-22T10:15:41.008Z,100266.25
2022-08-22T10:18:30.626Z,100271.72
2022-08-22T10:21:31.058Z,100275.94
2022-08-22T10:24:56.086Z,100274.66
2022-08-22T10:28:01.441Z,100277.91
2022-08-22T10:30:42.239Z,100280.63
2022-08-22T10:33:23.582Z,100278.31
2022-08-22T10:36:01.048Z,100285.63
2022-08-22T10:38:46.540Z,100284.00
2022-08-22T10:41:27.347Z,100282.25
2022-08-22T10:44:04.467Z,100280.03
2022-08-22T10:46:42.147Z,100275.19
2022-08-22T10:49:40.751Z,100279.13
2022-08-22T10:52:15.550Z,100271.00
2022-08-22T10:54:53.521Z,100283.47
2022-08-22T10:57:31.109Z,100287.72
2022-08-22T11:00:13.337Z,100289.63
2022-08-22T11:02:53.953Z,100287.94
2022-08-22T11:05:50.038Z,100287.53
2022-08-22T11:08:19.374Z,100283.56
2022-08-22T11:11:17.629Z,100287.72
2022-08-22T11:13:49.714Z,100281.44
2022-08-22T11:16:24.111Z,100281.75
2022-08-22T11:19:23.141Z,100280.53
2022-08-22T11:22:04.190Z,100278.41
2022-08-22T11:25:11.340Z,100275.47
2022-08-22T11:27:51.043Z,100289.03
2022-08-22T11:30:44.246Z,100283.88
2022-08-22T11:33:46.161Z,100284.00
2022-08-22T11:36:46.517Z,100289.25
2022-08-22T11:39:33.714Z,100287.63
2022-08-22T11:42:14.665Z,100282.66
2022-08-22T11:45:01.715Z,100277.19
2022-08-22T11:47:36.285Z,100274.94
2022-08-22T11:50:15.098Z,100287.22
2022-08-22T11:52:58.034Z,100283.78
2022-08-22T11:55:43.790Z,100287.84
2022-08-22T11:58:28.776Z,100282.47
2022-08-22T12:01:13.052Z,100286.13
2022-08-22T12:04:21.182Z,100284.19
2022-08-22T12:07:14.155Z,100295.59
2022-08-22T12:10:20.926Z,100282.72
2022-08-22T12:12:56.745Z,100285.44
2022-08-22T12:15:48.991Z,100276.38
2022-08-22T12:18:42.245Z,100282.47
2022-08-22T12:21:38.472Z,100289.00
2022-08-22T12:24:19.243Z,100284.91
2022-08-22T12:27:11.688Z,100278.00
2022-08-22T12:30:01.476Z,100277.56
2022-08-22T12:33:15.494Z,100280.44
2022-08-22T12:36:04.870Z,100277.69
2022-08-22T12:38:49.245Z,100278.44
2022-08-22T12:41:48.477Z,100267.94
2022-08-22T12:44:37.815Z,100276.34
2022-08-22T12:47:42.270Z,100271.81
2022-08-22T12:50:33.686Z,100275.84
2022-08-22T12:53:26.149Z,100272.00
2022-08-22T12:56:21.788Z,100263.19
2022-08-22T12:59:37.418Z,100265.13
2022-08-22T13:02:40.226Z,100273.53
2022-08-22T13:05:19.953Z,100275.75
2022-08-22T13:08:07.414Z,100273.72
2022-08-22T13:10:55.504Z,100274.25
2022-08-22T13:13:38.616Z,100273.94
2022-08-22T13:16:11.737Z,100274.91
2022-08-22T13:18:46.090Z,100274.59
2022-08-22T13:21:22.252Z,100265.59
2022-08-22T13:23:57.192Z,100270.41
2022-08-22T13:26:34.407Z,100271.66
2022-08-22T13:29:39.425Z,100275.38
2022-08-22T13:32:26.356Z,100270.78
2022-08-22T13:35:00.908Z,100273.63
2022-08-22T13:37:55.135Z,100280.25
2022-08-22T13:40:30.390Z,100272.88
2022-08-22T13:46:26.124Z,100271.03
2022-08-22T13:49:01.143Z,100260.88
2022-08-22T13:51:36.135Z,100262.25
2022-08-22T13:54:40.559Z,100265.75
2022-08-22T13:57:32.068Z,100258.63
2022-08-22T14:00:29.382Z,100257.19
2022-08-22T14:03:11.078Z,100260.44
2022-08-22T14:05:47.479Z,100252.09
2022-08-22T14:08:33.690Z,100254.28
2022-08-22T14:11:27.622Z,100248.63
2022-08-22T14:14:01.342Z,100247.63
2022-08-22T14:16:38.867Z,100246.88
2022-08-22T14:19:19.092Z,100244.44
2022-08-22T14:21:59.635Z,100239.84
2022-08-22T14:24:55.664Z,100243.38
2022-08-22T14:31:01.906Z,100242.81
2022-08-22T14:33:40.862Z,100244.31
2022-08-22T14:36:33.046Z,100235.41
2022-08-22T14:39:31.187Z,100240.56
2022-08-22T14:42:19.422Z,100242.72
2022-08-22T14:45:13.820Z,100239.78
2022-08-22T14:48:31.465Z,100240.22
2022-08-22T14:51:04.486Z,100243.69
2022-08-22T14:53:40.283Z,100241.78
2022-08-22T14:56:22.551Z,100241.91
2022-08-22T14:59:12.430Z,100234.31
2022-08-22T15:01:58.800Z,100236.25
2022-08-22T15:04:45.662Z,100232.09
2022-08-22T15:07:37.564Z,100238.06
2022-08-22T15:10:34.422Z,100235.16
2022-08-22T15:13:10.966Z,100230.38
2022-08-22T15:19:42.953Z,100223.38
2022-08-22T15:22:19.505Z,100235.84
2022-08-22T15:28:14.225Z,100227.94
2022-08-22T15:31:03.522Z,100229.44
2022-08-22T15:33:43.488Z,100228.09
2022-08-22T15:36:18.197Z,100228.63
2022-08-22T15:38:53.430Z,100226.78
2022-08-22T15:41:45.805Z,100225.38
2022-08-22T15:44:31.018Z,100218.66
2022-08-22T15:47:34.939Z,100226.47
2022-08-22T15:50:14.653Z,100227.25
2022-08-22T15:53:15.544Z,100213.56
2022-08-22T15:56:05.282Z,100215.34
2022-08-22T15:58:48.845Z,100221.16
2022-08-22T16:01:31.934Z,100210.53
2022-08-22T16:04:01.525Z,100212.03
2022-08-22T16:06:55.382Z,100211.69
2022-08-22T16:09:49.243Z,100208.06
2022-08-22T16:12:41.193Z,100202.19
2022-08-22T16:15:56.343Z,100207.31
2022-08-22T16:18:37.550Z,100207.91
2022-08-22T16:21:17.743Z,100216.44
2022-08-22T16:23:51.450Z,100222.25
2022-08-22T16:26:20.741Z,100228.06
2022-08-22T16:29:17.491Z,100219.63
2022-08-22T16:31:47.898Z,100227.59
2022-08-22T16:34:16.038Z,100232.84
2022-08-22T16:37:08.672Z,100233.94
2022-08-22T16:39:36.680Z,100228.47
2022-08-22T16:42:16.547Z,100226.25
2022-08-22T16:44:54.903Z,100234.44
2022-08-22T16:47:32.776Z,100234.00
2022-08-22T16:50:18.757Z,100238.72
2022-08-22T16:53:11.100Z,100232.00
2022-08-22T16:55:40.567Z,100236.75
2022-08-22T16:58:56.534Z,100231.81
2022-08-22T17:02:07.100Z,100243.50
2022-08-22T17:04:45.671Z,100233.50
2022-08-22T17:07:35.023Z,100241.72
2022-08-22T17:10:30.737Z,100241.53
2022-08-22T17:13:28.490Z,100239.31
2022-08-22T17:16:14.192Z,100242.34
2022-08-22T17:19:10.131Z,100251.41
2022-08-22T17:21:51.754Z,100246.03
2022-08-22T17:24:33.503Z,100252.88
2022-08-22T17:27:32.221Z,100256.81
2022-08-22T17:30:09.716Z,100261.22
2022-08-22T17:33:00.986Z,100263.16
2022-08-22T17:35:55.227Z,100267.25
2022-08-22T17:38:53.545Z,100263.19
2022-08-22T17:41:58.251Z,100267.56
2022-08-22T17:44:50.924Z,100272.78
2022-08-22T17:47:23.896Z,100272.00
2022-08-22T17:50:01.473Z,100278.50
2022-08-22T17:52:45.094Z,100275.78
2022-08-22T17:55:27.484Z,100275.78
2022-08-22T17:58:12.078Z,100293.22
2022-08-22T18:01:52.779Z,100297.31
2022-08-22T18:04:47.521Z,100299.00
2022-08-22T18:07:27.313Z,100305.00
2022-08-22T18:13:29.722Z,100302.25
2022-08-22T18:16:27.134Z,100305.56
2022-08-22T18:19:20.888Z,100311.78
2022-08-22T18:21:54.916Z,100314.81
2022-08-22T18:24:49.501Z,100320.00
2022-08-22T18:27:46.741Z,100320.31
2022-08-22T18:30:22.371Z,100324.16
2022-08-22T18:33:15.999Z,100322.25
2022-08-22T18:35:59.549Z,100323.63
2022-08-22T18:38:56.180Z,100323.91
2022-08-22T18:41:39.347Z,100334.78
2022-08-22T18:44:22.820Z,100329.34
2022-08-22T18:46:54.801Z,100333.16
2022-08-22T18:49:22.888Z,100329.06
2022-08-22T18:52:22.525Z,100323.09
2022-08-22T18:55:27.952Z,100318.75
2022-08-22T19:02:26.146Z,100319.31
2022-08-22T19:05:14.591Z,100324.47
2022-08-22T19:08:09.987Z,100321.75
2022-08-22T19:10:54.527Z,100319.31
2022-08-22T19:13:34.634Z,100320.09
2022-08-22T19:16:27.169Z,100306.81
2022-08-22T19:19:01.756Z,100316.31
2022-08-22T19:21:54.012Z,100315.25
2022-08-22T19:24:27.856Z,100318.22
2022-08-22T19:27:10.739Z,100322.28
2022-08-22T19:29:38.554Z,100315.22
2022-08-22T19:32:12.916Z,100312.25
2022-08-22T19:34:46.942Z,100316.31
2022-08-22T19:37:33.722Z,100298.69
2022-08-22T19:40:10.474Z,100308.72
2022-08-22T19:42:43.293Z,100312.50
2022-08-22T19:45:20.121Z,100313.88
2022-08-22T19:47:59.604Z,100311.72
2022-08-22T19:50:35.760Z,100306.50
2022-08-22T19:59:51.129Z,100319.22
2022-08-22T20:02:26.371Z,100324.91
2022-08-22T20:05:11.921Z,100324.03
2022-08-22T20:08:21.957Z,100325.13
2022-08-22T20:11:08.495Z,100331.06
2022-08-22T20:13:38.455Z,100325.88
2022-08-22T20:16:24.680Z,100331.31
2022-08-22T20:19:24.678Z,100328.28
2022-08-22T20:22:11.818Z,100333.13
2022-08-22T20:24:51.815Z,100326.81
2022-08-22T20:40:56.991Z,100313.16
2022-08-22T20:43:45.547Z,100318.31
2022-08-22T20:46:37.244Z,100321.34
2022-08-22T20:49:08.009Z,100321.88
2022-08-22T20:55:13.940Z,100326.41
2022-08-22T20:58:22.675Z,100323.16
2022-08-22T21:00:57.492Z,100325.34
2022-08-22T21:03:48.082Z,100322.69
2022-08-22T21:06:43.561Z,100322.97
2022-08-22T21:13:22.163Z,100307.44
2022-08-22T21:15:58.198Z,100309.28
2022-08-22T21:19:16.879Z,100307.09
2022-08-22T21:21:45.082Z,100306.25
2022-08-22T21:24:13.638Z,100312.81
2022-08-22T21:27:02.837Z,100315.50
2022-08-22T21:29:44.011Z,100314.69
2022-08-22T21:32:26.557Z,100316.56
2022-08-22T21:34:58.337Z,100316.03
2022-08-22T21:37:46.820Z,100314.69
2022-08-22T21:40:32.949Z,100313.63
2022-08-22T21:43:08.685Z,100317.94
2022-08-22T21:45:40.507Z,100306.53
2022-08-22T21:48:35.575Z,100308.13
2022-08-22T21:51:23.442Z,100306.19
2022-08-22T21:53:56.075Z,100308.09
2022-08-22T21:56:42.028Z,100307.81
2022-08-22T21:59:59.500Z,100314.63
2022-08-22T22:02:39.624Z,100308.38
2022-08-22T22:05:08.526Z,100299.41
2022-08-22T22:07:47.975Z,100299.69
2022-08-22T22:13:51.485Z,100291.94
2022-08-22T22:16:30.197Z,100288.66
2022-08-22T22:19:01.099Z,100291.22
2022-08-22T22:24:26.755Z,100284.22
2022-08-22T22:26:57.429Z,100288.06
2022-08-22T22:29:27.758Z,100278.00
2022-08-22T22:31:56.030Z,100274.91
2022-08-22T22:34:26.206Z,100276.19
2022-08-22T22:36:57.567Z,100270.13
2022-08-22T22:39:26.016Z,100268.22
2022-08-22T22:41:53.974Z,100273.09
2022-08-22T22:44:22.318Z,100270.41
2022-08-22T22:46:50.367Z,100266.38
2022-08-22T22:49:20.146Z,100274.22
2022-08-22T22:51:49.614Z,100269.00
2022-08-22T22:54:18.137Z,100264.19
2022-08-22T22:56:47.942Z,100277.69
2022-08-22T22:59:16.377Z,100276.63
2022-08-22T23:02:02.732Z,100267.19
2022-08-22T23:04:36.609Z,100282.09
2022-08-22T23:07:07.517Z,100289.59
2022-08-22T23:09:38.640Z,100288.34
2022-08-22T23:12:15.075Z,100291.34
2022-08-22T23:14:43.368Z,100289.19
2022-08-22T23:17:11.920Z,100281.91
2022-08-22T23:19:44.206Z,100284.97
2022-08-22T23:22:16.342Z,100289.22
2022-08-22T23:24:44.694Z,100290.38
2022-08-22T23:27:13.719Z,100293.09
2022-08-22T23:29:43.658Z,100288.47
2022-08-22T23:32:13.912Z,100286.28
2022-08-22T23:34:46.285Z,100284.31
2022-08-22T23:40:24.092Z,100269.44
2022-08-22T23:42:53.527Z,100277.25
2022-08-22T23:45:21.765Z,100276.16
2022-08-22T23:47:50.040Z,100277.47
2022-08-22T23:50:18.417Z,100286.13
2022-08-22T23:52:47.656Z,100294.72
2022-08-22T23:55:15.862Z,100300.06
2022-08-22T23:57:44.004Z,100306.06
